sensor_id;sensor_type;location;lat;lon;timestamp;pressure;altitude;pressure_sealevel;temperature;humidity
62011;BME280;47967;51.756;10.174;2023-01-26T05:02:50;100358.91;;;-1.66;79.81
62011;BME280;47967;51.756;10.174;2023-01-26T05:06:53;100359.84;;;-1.67;79.54
62011;BME280;47967;51.756;10.174;2023-01-26T05:10:58;100361.84;;;-1.83;80.21
62011;BME280;47967;51.756;10.174;2023-01-26T05:15:20;100365.25;;;-1.94;79.84
62011;BME280;47967;51.756;10.174;2023-01-26T05:19:40;100357.75;;;-1.74;79.58
62011;BME280;47967;51.756;10.174;2023-01-26T05:24:02;100345.69;;;-1.91;79.25
62011;BME280;47967;51.756;10.174;2023-01-26T05:28:16;100350.97;;;-1.66;79.44
62011;BME280;47967;51.756;10.174;2023-01-26T05:32:19;100363.97;;;-1.63;78.79
62011;BME280;47967;51.756;10.174;2023-01-26T05:36:24;100364.38;;;-1.56;78.04
62011;BME280;47967;51.756;10.174;2023-01-26T05:40:27;100356.69;;;-1.72;77.85
62011;BME280;47967;51.756;10.174;2023-01-26T05:44:30;100356.56;;;-1.70;78.05
62011;BME280;47967;51.756;10.174;2023-01-26T05:48:38;100346.38;;;-1.38;78.55
62011;BME280;47967;51.756;10.174;2023-01-26T05:52:42;100349.94;;;-1.26;77.47
62011;BME280;47967;51.756;10.174;2023-01-26T05:56:46;100360.72;;;-1.16;77.72
62011;BME280;47967;51.756;10.174;2023-01-26T06:00:49;100364.72;;;-1.10;77.50
62011;BME280;47967;51.756;10.174;2023-01-26T06:04:58;100365.47;;;-1.08;77.27
62011;BME280;47967;51.756;10.174;2023-01-26T06:09:02;100368.94;;;-0.95;77.02
62011;BME280;47967;51.756;10.174;2023-01-26T06:13:04;100364.72;;;-1.10;76.13
62011;BME280;47967;51.756;10.174;2023-01-26T06:17:21;100357.31;;;-1.05;75.99
62011;BME280;47967;51.756;10.174;2023-01-26T06:21:30;100361.19;;;-0.98;76.46
62011;BME280;47967;51.756;10.174;2023-01-26T06:25:34;100366.16;;;-0.93;75.92
62011;BME280;47967;51.756;10.174;2023-01-26T06:29:38;100367.00;;;-0.93;75.32
62011;BME280;47967;51.756;10.174;2023-01-26T06:33:42;100369.56;;;-0.91;75.33
62011;BME280;47967;51.756;10.174;2023-01-26T06:37:47;100378.22;;;-0.89;74.65
62011;BME280;47967;51.756;10.174;2023-01-26T06:41:50;100382.56;;;-0.88;74.64
62011;BME280;47967;51.756;10.174;2023-01-26T06:45:54;100380.25;;;-0.93;74.64
62011;BME280;47967;51.756;10.174;2023-01-26T06:49:57;100384.84;;;-1.08;75.03
62011;BME280;47967;51.756;10.174;2023-01-26T06:54:01;100387.41;;;-1.19;75.76
62011;BME280;47967;51.756;10.174;2023-01-26T06:58:12;100380.44;;;-1.20;75.58
62011;BME280;47967;51.756;10.174;2023-01-26T07:02:28;100388.25;;;-1.06;75.71
62011;BME280;47967;51.756;10.174;2023-01-26T07:06:31;100381.09;;;-0.92;75.46
62011;BME280;47967;51.756;10.174;2023-01-26T07:10:34;100377.59;;;-0.93;75.21
62011;BME280;47967;51.756;10.174;2023-01-26T07:14:38;100378.28;;;-1.02;75.59
62011;BME280;47967;51.756;10.174;2023-01-26T07:18:40;100389.50;;;-1.11;76.54
62011;BME280;47967;51.756;10.174;2023-01-26T07:22:43;100380.41;;;-1.07;76.98
62011;BME280;47967;51.756;10.174;2023-01-26T07:26:45;100388.44;;;-1.09;78.03
62011;BME280;47967;51.756;10.174;2023-01-26T07:30:49;100373.75;;;-1.26;79.10
62011;BME280;47967;51.756;10.174;2023-01-26T07:34:52;100389.44;;;-1.36;80.49
62011;BME280;47967;51.756;10.174;2023-01-26T07:38:54;100388.81;;;-1.26;81.23
62011;BME280;47967;51.756;10.174;2023-01-26T07:42:57;100383.28;;;-1.10;81.69
62011;BME280;47967;51.756;10.174;2023-01-26T07:47:22;100397.31;;;-0.84;81.73
62011;BME280;47967;51.756;10.174;2023-01-26T07:51:24;100394.69;;;-1.10;81.56
62011;BME280;47967;51.756;10.174;2023-01-26T07:55:27;100389.31;;;-1.08;81.98
62011;BME280;47967;51.756;10.174;2023-01-26T07:59:29;100394.16;;;-1.02;82.10
62011;BME280;47967;51.756;10.174;2023-01-26T08:03:34;100406.91;;;-0.83;81.89
62011;BME280;47967;51.756;10.174;2023-01-26T08:07:37;100397.69;;;-0.77;81.76
62011;BME280;47967;51.756;10.174;2023-01-26T08:11:39;100399.28;;;-0.75;81.56
62011;BME280;47967;51.756;10.174;2023-01-26T08:15:42;100403.97;;;-0.54;81.12
62011;BME280;47967;51.756;10.174;2023-01-26T08:19:46;100407.72;;;-0.45;80.19
62011;BME280;47967;51.756;10.174;2023-01-26T08:23:49;100410.28;;;-0.44;80.20
62011;BME280;47967;51.756;10.174;2023-01-26T08:27:53;100406.41;;;-0.27;79.71
62011;BME280;47967;51.756;10.174;2023-01-26T08:31:56;100404.28;;;-0.35;79.31
62011;BME280;47967;51.756;10.174;2023-01-26T08:36:04;100404.28;;;-0.35;79.45
62011;BME280;47967;51.756;10.174;2023-01-26T08:40:08;100396.59;;;-0.38;79.47
62011;BME280;47967;51.756;10.174;2023-01-26T08:44:11;100409.53;;;-0.22;79.45
62011;BME280;47967;51.756;10.174;2023-01-26T08:48:13;100400.63;;;-0.21;79.58
62011;BME280;47967;51.756;10.174;2023-01-26T08:52:17;100393.69;;;0.01;78.93
62011;BME280;47967;51.756;10.174;2023-01-26T08:56:21;100392.94;;;0.23;78.51
62011;BME280;47967;51.756;10.174;2023-01-26T09:00:24;100406.09;;;0.47;77.65
62011;BME280;47967;51.756;10.174;2023-01-26T09:04:27;100402.84;;;0.55;76.69
62011;BME280;47967;51.756;10.174;2023-01-26T09:08:31;100404.41;;;0.80;76.51
62011;BME280;47967;51.756;10.174;2023-01-26T09:12:34;100391.13;;;1.03;75.15
62011;BME280;47967;51.756;10.174;2023-01-26T09:16:36;100387.94;;;1.21;74.49
62011;BME280;47967;51.756;10.174;2023-01-26T09:20:39;100386.56;;;1.38;73.75
62011;BME280;47967;51.756;10.174;2023-01-26T09:24:43;100389.53;;;1.67;72.94
62011;BME280;47967;51.756;10.174;2023-01-26T09:28:49;100398.72;;;1.84;72.01
62011;BME280;47967;51.756;10.174;2023-01-26T09:32:51;100390.88;;;1.83;71.61
62011;BME280;47967;51.756;10.174;2023-01-26T09:36:54;100388.28;;;2.04;70.88
62011;BME280;47967;51.756;10.174;2023-01-26T09:41:04;100383.94;;;1.91;71.00
62011;BME280;47967;51.756;10.174;2023-01-26T09:45:16;100392.06;;;2.11;71.16
62011;BME280;47967;51.756;10.174;2023-01-26T09:49:25;100405.59;;;2.19;71.21
62011;BME280;47967;51.756;10.174;2023-01-26T09:53:40;100405.72;;;2.18;70.52
62011;BME280;47967;51.756;10.174;2023-01-26T09:57:50;100401.00;;;1.68;71.70
62011;BME280;47967;51.756;10.174;2023-01-26T10:02:00;100399.44;;;1.65;72.35
62011;BME280;47967;51.756;10.174;2023-01-26T10:06:12;100398.81;;;1.94;71.93
62011;BME280;47967;51.756;10.174;2023-01-26T10:10:38;100404.66;;;1.88;71.70
62011;BME280;47967;51.756;10.174;2023-01-26T10:14:48;100394.81;;;2.00;71.82
62011;BME280;47967;51.756;10.174;2023-01-26T10:18:53;100393.06;;;1.56;72.47
62011;BME280;47967;51.756;10.174;2023-01-26T10:23:00;100388.94;;;1.64;72.64
62011;BME280;47967;51.756;10.174;2023-01-26T10:27:08;100389.88;;;1.30;73.63
62011;BME280;47967;51.756;10.174;2023-01-26T10:31:15;100371.28;;;1.19;74.48
62011;BME280;47967;51.756;10.174;2023-01-26T10:35:20;100363.22;;;1.09;74.89
62011;BME280;47967;51.756;10.174;2023-01-26T10:39:23;100366.31;;;1.25;75.30
62011;BME280;47967;51.756;10.174;2023-01-26T10:43:26;100364.91;;;1.10;75.89
62011;BME280;47967;51.756;10.174;2023-01-26T10:47:30;100357.31;;;0.94;77.02
62011;BME280;47967;51.756;10.174;2023-01-26T10:51:34;100346.56;;;1.07;77.18
62011;BME280;47967;51.756;10.174;2023-01-26T10:55:37;100351.03;;;0.95;77.22
62011;BME280;47967;51.756;10.174;2023-01-26T10:59:42;100339.97;;;1.66;76.57
62011;BME280;47967;51.756;10.174;2023-01-26T11:04:02;100338.13;;;1.34;75.83
62011;BME280;47967;51.756;10.174;2023-01-26T11:08:31;100331.69;;;1.48;76.25
62011;BME280;47967;51.756;10.174;2023-01-26T11:12:34;100331.91;;;1.78;75.10
62011;BME280;47967;51.756;10.174;2023-01-26T11:16:37;100334.22;;;2.13;74.11
62011;BME280;47967;51.756;10.174;2023-01-26T11:20:46;100328.78;;;1.94;73.60
62011;BME280;47967;51.756;10.174;2023-01-26T11:24:58;100337.22;;;1.78;73.42
62011;BME280;47967;51.756;10.174;2023-01-26T11:29:23;100314.88;;;2.11;73.47
62011;BME280;47967;51.756;10.174;2023-01-26T11:33:37;100323.09;;;1.98;72.89
62011;BME280;47967;51.756;10.174;2023-01-26T11:37:46;100314.09;;;2.20;73.66
62011;BME280;47967;51.756;10.174;2023-01-26T11:42:12;100306.88;;;2.32;72.89
62011;BME280;47967;51.756;10.174;2023-01-26T11:46:33;100306.16;;;1.99;73.52
62011;BME280;47967;51.756;10.174;2023-01-26T11:50:43;100290.63;;;2.35;73.17
62011;BME280;47967;51.756;10.174;2023-01-26T11:55:20;100297.56;;;2.17;72.19
62011;BME280;47967;51.756;10.174;2023-01-26T11:59:29;100286.28;;;2.03;72.78
62011;BME280;47967;51.756;10.174;2023-01-26T12:03:41;100280.16;;;2.13;73.33
62011;BME280;47967;51.756;10.174;2023-01-26T12:07:50;100281.34;;;1.99;73.40
62011;BME280;47967;51.756;10.174;2023-01-26T12:11:59;100278.28;;;2.03;73.75
62011;BME280;47967;51.756;10.174;2023-01-26T12:16:12;100272.91;;;1.94;74.56
62011;BME280;47967;51.756;10.174;2023-01-26T12:20:25;100261.44;;;1.93;74.57
62011;BME280;47967;51.756;10.174;2023-01-26T12:24:34;100250.59;;;2.16;74.56
62011;BME280;47967;51.756;10.174;2023-01-26T12:29:02;100258.72;;;2.55;73.31
62011;BME280;47967;51.756;10.174;2023-01-26T12:33:10;100251.81;;;2.02;73.79
62011;BME280;47967;51.756;10.174;2023-01-26T12:37:24;100246.50;;;1.81;74.53
62011;BME280;47967;51.756;10.174;2023-01-26T12:41:40;100246.97;;;1.86;75.04
62011;BME280;47967;51.756;10.174;2023-01-26T12:45:49;100244.84;;;1.80;75.12
62011;BME280;47967;51.756;10.174;2023-01-26T12:49:57;100248.13;;;1.72;75.10
62011;BME280;47967;51.756;10.174;2023-01-26T12:54:05;100241.66;;;1.86;75.21
62011;BME280;47967;51.756;10.174;2023-01-26T12:58:15;100242.28;;;1.78;75.78
62011;BME280;47967;51.756;10.174;2023-01-26T13:02:28;100239.28;;;1.92;75.37
62011;BME280;47967;51.756;10.174;2023-01-26T13:06:31;100230.34;;;1.94;75.59
62011;BME280;47967;51.756;10.174;2023-01-26T13:10:45;100234.44;;;1.76;75.63
62011;BME280;47967;51.756;10.174;2023-01-26T13:14:59;100234.00;;;1.71;76.36
62011;BME280;47967;51.756;10.174;2023-01-26T13:19:03;100231.59;;;1.68;76.63
62011;BME280;47967;51.756;10.174;2023-01-26T13:23:36;100230.19;;;1.64;76.38
62011;BME280;47967;51.756;10.174;2023-01-26T13:27:43;100234.44;;;1.34;77.58
62011;BME280;47967;51.756;10.174;2023-01-26T13:31:47;100236.16;;;1.56;77.30
62011;BME280;47967;51.756;10.174;2023-01-26T13:35:52;100243.75;;;1.40;77.58
62011;BME280;47967;51.756;10.174;2023-01-26T13:39:58;100238.56;;;1.38;77.60
62011;BME280;47967;51.756;10.174;2023-01-26T13:44:06;100251.56;;;1.41;78.01
62011;BME280;47967;51.756;10.174;2023-01-26T13:48:13;100246.75;;;1.47;78.23
62011;BME280;47967;51.756;10.174;2023-01-26T13:52:18;100251.41;;;1.54;77.76
62011;BME280;47967;51.756;10.174;2023-01-26T14:01:21;100240.31;;;1.49;78.37
62011;BME280;47967;51.756;10.174;2023-01-26T14:05:24;100240.50;;;1.57;77.98
62011;BME280;47967;51.756;10.174;2023-01-26T14:09:30;100235.75;;;1.61;78.19
62011;BME280;47967;51.756;10.174;2023-01-26T14:13:35;100224.66;;;1.56;78.06
62011;BME280;47967;51.756;10.174;2023-01-26T14:17:49;100229.16;;;1.55;78.38
62011;BME280;47967;51.756;10.174;2023-01-26T14:21:53;100225.25;;;1.38;78.73
62011;BME280;47967;51.756;10.174;2023-01-26T14:26:00;100230.06;;;1.44;79.14
62011;BME280;47967;51.756;10.174;2023-01-26T14:30:20;100233.03;;;1.51;79.41
62011;BME280;47967;51.756;10.174;2023-01-26T14:34:50;100228.63;;;1.62;79.60
62011;BME280;47967;51.756;10.174;2023-01-26T14:38:54;100235.00;;;1.49;79.41
62011;BME280;47967;51.756;10.174;2023-01-26T14:42:58;100241.81;;;1.42;79.77
62011;BME280;47967;51.756;10.174;2023-01-26T14:47:03;100239.91;;;1.33;79.92
62011;BME280;47967;51.756;10.174;2023-01-26T14:51:15;100246.00;;;1.44;79.76
62011;BME280;47967;51.756;10.174;2023-01-26T14:55:21;100243.34;;;1.23;80.06
62011;BME280;47967;51.756;10.174;2023-01-26T14:59:32;100246.13;;;1.22;80.85
62011;BME280;47967;51.756;10.174;2023-01-26T15:03:36;100262.44;;;1.17;81.31
62011;BME280;47967;51.756;10.174;2023-01-26T15:07:46;100255.69;;;1.13;82.04
62011;BME280;47967;51.756;10.174;2023-01-26T15:11:52;100267.97;;;1.25;82.39
62011;BME280;47967;51.756;10.174;2023-01-26T15:16:16;100259.25;;;1.35;82.36
62011;BME280;47967;51.756;10.174;2023-01-26T15:20:41;100256.88;;;1.20;82.50
62011;BME280;47967;51.756;10.174;2023-01-26T15:24:45;100266.03;;;1.27;82.59
62011;BME280;47967;51.756;10.174;2023-01-26T15:28:49;100264.41;;;1.15;82.40
62011;BME280;47967;51.756;10.174;2023-01-26T15:32:53;100260.38;;;1.21;82.38
62011;BME280;47967;51.756;10.174;2023-01-26T15:36:56;100258.63;;;1.10;82.63
62011;BME280;47967;51.756;10.174;2023-01-26T15:40:59;100254.47;;;1.17;83.16
62011;BME280;47967;51.756;10.174;2023-01-26T15:45:02;100250.66;;;1.10;83.15
62011;BME280;47967;51.756;10.174;2023-01-26T15:49:06;100252.53;;;1.19;83.34
62011;BME280;47967;51.756;10.174;2023-01-26T15:53:12;100246.69;;;1.25;83.84
62011;BME280;47967;51.756;10.174;2023-01-26T15:57:14;100253.34;;;1.31;83.38
62011;BME280;47967;51.756;10.174;2023-01-26T16:01:19;100254.22;;;1.20;83.08
62011;BME280;47967;51.756;10.174;2023-01-26T16:05:25;100256.28;;;1.17;83.41
62011;BME280;47967;51.756;10.174;2023-01-26T16:09:28;100254.75;;;1.35;83.21
62011;BME280;47967;51.756;10.174;2023-01-26T16:13:30;100257.03;;;1.40;82.94
62011;BME280;47967;51.756;10.174;2023-01-26T16:17:34;100255.34;;;1.39;82.71
62011;BME280;47967;51.756;10.174;2023-01-26T16:21:38;100257.41;;;1.35;83.05
62011;BME280;47967;51.756;10.174;2023-01-26T16:25:41;100260.63;;;1.50;82.72
62011;BME280;47967;51.756;10.174;2023-01-26T16:29:44;100265.94;;;1.50;82.48
62011;BME280;47967;51.756;10.174;2023-01-26T16:33:47;100266.19;;;1.47;82.61
62011;BME280;47967;51.756;10.174;2023-01-26T16:37:51;100251.13;;;1.57;82.42
62011;BME280;47967;51.756;10.174;2023-01-26T16:41:53;100253.06;;;1.76;82.19
62011;BME280;47967;51.756;10.174;2023-01-26T16:45:56;100247.66;;;1.88;81.73
62011;BME280;47967;51.756;10.174;2023-01-26T16:49:59;100254.44;;;1.71;81.59
62011;BME280;47967;51.756;10.174;2023-01-26T16:54:03;100253.53;;;1.82;81.43
62011;BME280;47967;51.756;10.174;2023-01-26T16:58:06;100245.22;;;1.75;80.93
62011;BME280;47967;51.756;10.174;2023-01-26T17:02:20;100262.59;;;1.79;81.15
62011;BME280;47967;51.756;10.174;2023-01-26T17:06:24;100261.34;;;1.73;80.92
62011;BME280;47967;51.756;10.174;2023-01-26T17:10:28;100253.59;;;1.70;81.34
62011;BME280;47967;51.756;10.174;2023-01-26T17:14:31;100262.59;;;1.79;81.09
62011;BME280;47967;51.756;10.174;2023-01-26T17:18:36;100264.34;;;1.90;81.16
62011;BME280;47967;51.756;10.174;2023-01-26T17:22:55;100262.34;;;1.82;81.08
62011;BME280;47967;51.756;10.174;2023-01-26T17:26:59;100265.25;;;1.79;81.38
62011;BME280;47967;51.756;10.174;2023-01-26T17:31:06;100266.88;;;1.91;81.09
62011;BME280;47967;51.756;10.174;2023-01-26T17:35:10;100265.66;;;1.96;81.43
62011;BME280;47967;51.756;10.174;2023-01-26T17:39:13;100263.56;;;1.99;81.62
62011;BME280;47967;51.756;10.174;2023-01-26T17:43:17;100265.50;;;1.97;81.13
62011;BME280;47967;51.756;10.174;2023-01-26T17:47:22;100261.34;;;2.04;81.20
62011;BME280;47967;51.756;10.174;2023-01-26T17:51:25;100260.00;;;2.10;80.81
62011;BME280;47967;51.756;10.174;2023-01-26T17:55:28;100257.91;;;2.14;80.81
62011;BME280;47967;51.756;10.174;2023-01-26T17:59:32;100254.19;;;2.05;80.64
62011;BME280;47967;51.756;10.174;2023-01-26T18:03:39;100258.59;;;1.85;81.10
62011;BME280;47967;51.756;10.174;2023-01-26T18:07:41;100268.13;;;1.87;81.50
62011;BME280;47967;51.756;10.174;2023-01-26T18:11:44;100262.94;;;1.86;81.10
62011;BME280;47967;51.756;10.174;2023-01-26T18:15:48;100265.59;;;1.86;80.99
62011;BME280;47967;51.756;10.174;2023-01-26T18:19:50;100262.66;;;1.89;81.37
62011;BME280;47967;51.756;10.174;2023-01-26T18:23:54;100260.09;;;1.78;81.54
62011;BME280;47967;51.756;10.174;2023-01-26T18:27:58;100257.81;;;1.73;81.38
62011;BME280;47967;51.756;10.174;2023-01-26T18:32:02;100264.97;;;1.72;81.61
62011;BME280;47967;51.756;10.174;2023-01-26T18:36:06;100263.84;;;1.75;81.27
62011;BME280;47967;51.756;10.174;2023-01-26T18:40:11;100260.59;;;1.71;81.52
62011;BME280;47967;51.756;10.174;2023-01-26T18:44:15;100255.63;;;1.57;80.76
62011;BME280;47967;51.756;10.174;2023-01-26T18:48:20;100267.63;;;1.72;81.13
62011;BME280;47967;51.756;10.174;2023-01-26T18:52:23;100267.09;;;1.79;81.18
62011;BME280;47967;51.756;10.174;2023-01-26T18:56:26;100263.38;;;1.91;80.27
62011;BME280;47967;51.756;10.174;2023-01-26T19:00:28;100274.53;;;2.06;80.45
62011;BME280;47967;51.756;10.174;2023-01-26T19:04:32;100274.50;;;2.27;80.13
62011;BME280;47967;51.756;10.174;2023-01-26T19:08:35;100272.00;;;2.04;79.46
62011;BME280;47967;51.756;10.174;2023-01-26T19:12:39;100263.09;;;1.94;79.58
62011;BME280;47967;51.756;10.174;2023-01-26T19:16:41;100267.53;;;1.84;80.06
62011;BME280;47967;51.756;10.174;2023-01-26T19:20:54;100272.19;;;1.91;80.46
62011;BME280;47967;51.756;10.174;2023-01-26T19:24:57;100266.28;;;1.88;80.04
62011;BME280;47967;51.756;10.174;2023-01-26T19:28:59;100271.16;;;1.83;80.27
62011;BME280;47967;51.756;10.174;2023-01-26T19:33:02;100268.78;;;1.80;80.67
62011;BME280;47967;51.756;10.174;2023-01-26T19:37:24;100275.31;;;1.75;81.19
62011;BME280;47967;51.756;10.174;2023-01-26T19:41:27;100267.25;;;1.77;81.29
62011;BME280;47967;51.756;10.174;2023-01-26T19:45:29;100269.97;;;1.87;81.36
62011;BME280;47967;51.756;10.174;2023-01-26T19:49:32;100264.38;;;1.69;81.38
62011;BME280;47967;51.756;10.174;2023-01-26T19:53:38;100276.44;;;1.73;81.94
62011;BME280;47967;51.756;10.174;2023-01-26T19:57:41;100274.16;;;1.68;82.20
62011;BME280;47967;51.756;10.174;2023-01-26T20:01:43;100281.38;;;1.78;81.93
62011;BME280;47967;51.756;10.174;2023-01-26T20:05:46;100278.06;;;1.64;82.19
62011;BME280;47967;51.756;10.174;2023-01-26T20:09:49;100273.91;;;1.71;82.91
62011;BME280;47967;51.756;10.174;2023-01-26T20:13:53;100275.25;;;1.66;82.84
62011;BME280;47967;51.756;10.174;2023-01-26T20:17:56;100272.75;;;1.64;83.21
62011;BME280;47967;51.756;10.174;2023-01-26T20:21:58;100268.19;;;1.55;83.27
62011;BME280;47967;51.756;10.174;2023-01-26T20:26:05;100263.94;;;1.64;83.80
62011;BME280;47967;51.756;10.174;2023-01-26T20:30:09;100268.78;;;1.58;83.31
62011;BME280;47967;51.756;10.174;2023-01-26T20:34:13;100269.13;;;1.65;83.32
62011;BME280;47967;51.756;10.174;2023-01-26T20:38:16;100265.78;;;1.73;83.07
62011;BME280;47967;51.756;10.174;2023-01-26T20:42:20;100269.22;;;1.85;82.69
62011;BME280;47967;51.756;10.174;2023-01-26T20:46:23;100276.50;;;1.83;81.73
62011;BME280;47967;51.756;10.174;2023-01-26T20:50:25;100261.00;;;1.67;81.72
62011;BME280;47967;51.756;10.174;2023-01-26T20:54:28;100269.31;;;1.73;81.51
62011;BME280;47967;51.756;10.174;2023-01-26T20:58:32;100267.03;;;1.69;81.40
62011;BME280;47967;51.756;10.174;2023-01-26T21:02:34;100265.66;;;1.74;80.97
62011;BME280;47967;51.756;10.174;2023-01-26T21:06:37;100275.38;;;1.85;80.75
62011;BME280;47967;51.756;10.174;2023-01-26T21:10:44;100271.22;;;1.92;80.48
62011;BME280;47967;51.756;10.174;2023-01-26T21:14:48;100265.41;;;1.78;80.20
62011;BME280;47967;51.756;10.174;2023-01-26T21:18:51;100265.75;;;1.94;79.98
62011;BME280;47967;51.756;10.174;2023-01-26T21:22:53;100274.69;;;1.83;79.76
62011;BME280;47967;51.756;10.174;2023-01-26T21:26:56;100279.28;;;1.81;80.00
62011;BME280;47967;51.756;10.174;2023-01-26T21:31:00;100277.13;;;1.96;80.21
62011;BME280;47967;51.756;10.174;2023-01-26T21:35:03;100275.53;;;1.84;79.93
62011;BME280;47967;51.756;10.174;2023-01-26T21:39:06;100273.25;;;2.00;79.53
62011;BME280;47967;51.756;10.174;2023-01-26T21:43:12;100274.75;;;1.93;79.96
62011;BME280;47967;51.756;10.174;2023-01-26T21:47:16;100263.44;;;2.01;79.32
62011;BME280;47967;51.756;10.174;2023-01-26T21:51:19;100269.06;;;2.07;79.66
62011;BME280;47967;51.756;10.174;2023-01-26T21:55:39;100261.59;;;2.01;79.03
62011;BME280;47967;51.756;10.174;2023-01-26T21:59:42;100264.72;;;2.06;79.21
